sensor_id;sensor_type;location;lat;lon;timestamp;P1;durP1;ratioP1;P2;durP2;ratioP2
10293;SDS011;5192;50.328;7.610;2022-08-03T00:00:59;2.42;;;2.22;;
10293;SDS011;5192;50.328;7.610;2022-08-03T00:03:26;2.27;;;2.10;;
10293;SDS011;5192;50.328;7.610;2022-08-03T00:05:52;2.10;;;2.00;;
10293;SDS011;5192;50.328;7.610;2022-08-03T00:08:21;3.20;;;2.50;;
10293;SDS011;5192;50.328;7.610;2022-08-03T00:10:50;2.60;;;2.40;;
10293;SDS011;5192;50.328;7.610;2022-08-03T00:13:23;2.47;;;2.27;;
10293;SDS011;5192;50.328;7.610;2022-08-03T00:15:54;2.50;;;2.30;;
10293;SDS011;5192;50.328;7.610;2022-08-03T00:18:23;2.80;;;2.50;;
10293;SDS011;5192;50.328;7.610;2022-08-03T00:20:48;2.63;;;2.43;;
10293;SDS011;5192;50.328;7.610;2022-08-03T00:23:32;2.30;;;2.10;;
10293;SDS011;5192;50.328;7.610;2022-08-03T00:25:59;2.53;;;2.33;;
10293;SDS011;5192;50.328;7.610;2022-08-03T00:28:25;2.65;;;2.42;;
10293;SDS011;5192;50.328;7.610;2022-08-03T00:30:52;2.63;;;2.43;;
10293;SDS011;5192;50.328;7.610;2022-08-03T00:33:23;2.85;;;2.33;;
10293;SDS011;5192;50.328;7.610;2022-08-03T00:35:48;2.50;;;2.30;;
10293;SDS011;5192;50.328;7.610;2022-08-03T00:38:19;3.20;;;2.10;;
10293;SDS011;5192;50.328;7.610;2022-08-03T00:40:45;2.60;;;2.40;;
10293;SDS011;5192;50.328;7.610;2022-08-03T00:43:14;2.80;;;2.50;;
10293;SDS011;5192;50.328;7.610;2022-08-03T00:45:55;2.93;;;2.20;;
10293;SDS011;5192;50.328;7.610;2022-08-03T00:48:42;2.97;;;2.77;;
10293;SDS011;5192;50.328;7.610;2022-08-03T00:51:09;2.40;;;2.20;;
10293;SDS011;5192;50.328;7.610;2022-08-03T00:53:35;2.40;;;2.17;;
10293;SDS011;5192;50.328;7.610;2022-08-03T00:56:01;2.77;;;2.27;;
10293;SDS011;5192;50.328;7.610;2022-08-03T00:58:27;2.63;;;2.27;;
10293;SDS011;5192;50.328;7.610;2022-08-03T01:00:54;2.50;;;2.30;;
10293;SDS011;5192;50.328;7.610;2022-08-03T01:03:22;2.60;;;2.40;;
10293;SDS011;5192;50.328;7.610;2022-08-03T01:05:55;2.40;;;2.20;;
10293;SDS011;5192;50.328;7.610;2022-08-03T01:11:48;2.90;;;2.20;;
10293;SDS011;5192;50.328;7.610;2022-08-03T01:14:43;2.60;;;2.40;;
10293;SDS011;5192;50.328;7.610;2022-08-03T01:17:23;5.97;;;2.87;;
10293;SDS011;5192;50.328;7.610;2022-08-03T01:20:06;2.70;;;2.50;;
10293;SDS011;5192;50.328;7.610;2022-08-03T01:25:27;3.23;;;2.60;;
10293;SDS011;5192;50.328;7.610;2022-08-03T01:31:12;2.57;;;2.37;;
10293;SDS011;5192;50.328;7.610;2022-08-03T01:34:01;3.13;;;2.93;;
10293;SDS011;5192;50.328;7.610;2022-08-03T01:36:34;2.70;;;2.50;;
10293;SDS011;5192;50.328;7.610;2022-08-03T01:39:05;2.73;;;2.53;;
10293;SDS011;5192;50.328;7.610;2022-08-03T01:41:48;2.83;;;2.63;;
10293;SDS011;5192;50.328;7.610;2022-08-03T01:44:25;2.97;;;2.70;;
10293;SDS011;5192;50.328;7.610;2022-08-03T01:47:05;2.53;;;2.33;;
10293;SDS011;5192;50.328;7.610;2022-08-03T01:49:44;2.40;;;2.20;;
10293;SDS011;5192;50.328;7.610;2022-08-03T01:52:12;2.60;;;2.40;;
10293;SDS011;5192;50.328;7.610;2022-08-03T01:54:50;4.07;;;2.60;;
10293;SDS011;5192;50.328;7.610;2022-08-03T01:57:22;2.80;;;2.60;;
10293;SDS011;5192;50.328;7.610;2022-08-03T01:59:54;2.50;;;2.30;;
10293;SDS011;5192;50.328;7.610;2022-08-03T02:02:43;2.70;;;2.50;;
10293;SDS011;5192;50.328;7.610;2022-08-03T02:05:23;2.70;;;2.50;;
10293;SDS011;5192;50.328;7.610;2022-08-03T02:07:52;2.73;;;2.53;;
10293;SDS011;5192;50.328;7.610;2022-08-03T02:10:19;3.47;;;2.80;;
10293;SDS011;5192;50.328;7.610;2022-08-03T02:12:47;2.77;;;2.57;;
10293;SDS011;5192;50.328;7.610;2022-08-03T02:15:15;2.60;;;2.40;;
10293;SDS011;5192;50.328;7.610;2022-08-03T02:17:42;3.20;;;2.90;;
10293;SDS011;5192;50.328;7.610;2022-08-03T02:20:12;3.10;;;2.90;;
10293;SDS011;5192;50.328;7.610;2022-08-03T02:22:41;2.80;;;2.60;;
10293;SDS011;5192;50.328;7.610;2022-08-03T02:25:09;2.93;;;2.73;;
10293;SDS011;5192;50.328;7.610;2022-08-03T02:27:38;3.30;;;3.03;;
10293;SDS011;5192;50.328;7.610;2022-08-03T02:30:29;3.07;;;2.80;;
10293;SDS011;5192;50.328;7.610;2022-08-03T02:33:04;3.87;;;2.90;;
10293;SDS011;5192;50.328;7.610;2022-08-03T02:35:34;2.80;;;2.60;;
10293;SDS011;5192;50.328;7.610;2022-08-03T02:38:06;2.60;;;2.40;;
10293;SDS011;5192;50.328;7.610;2022-08-03T02:40:33;3.30;;;2.70;;
10293;SDS011;5192;50.328;7.610;2022-08-03T02:43:04;3.70;;;3.10;;
10293;SDS011;5192;50.328;7.610;2022-08-03T02:45:34;3.03;;;2.83;;
10293;SDS011;5192;50.328;7.610;2022-08-03T02:48:05;2.93;;;2.73;;
10293;SDS011;5192;50.328;7.610;2022-08-03T02:50:36;2.90;;;2.70;;
10293;SDS011;5192;50.328;7.610;2022-08-03T02:53:04;3.03;;;2.83;;
10293;SDS011;5192;50.328;7.610;2022-08-03T02:55:33;4.17;;;3.03;;
10293;SDS011;5192;50.328;7.610;2022-08-03T02:58:01;3.43;;;3.13;;
10293;SDS011;5192;50.328;7.610;2022-08-03T03:00:30;3.60;;;2.80;;
10293;SDS011;5192;50.328;7.610;2022-08-03T03:03:00;3.13;;;2.93;;
10293;SDS011;5192;50.328;7.610;2022-08-03T03:05:31;3.63;;;2.63;;
10293;SDS011;5192;50.328;7.610;2022-08-03T03:07:59;3.17;;;2.87;;
10293;SDS011;5192;50.328;7.610;2022-08-03T03:10:26;3.23;;;2.93;;
10293;SDS011;5192;50.328;7.610;2022-08-03T03:12:56;3.47;;;3.17;;
10293;SDS011;5192;50.328;7.610;2022-08-03T03:15:24;3.13;;;2.93;;
10293;SDS011;5192;50.328;7.610;2022-08-03T03:17:52;3.80;;;3.43;;
10293;SDS011;5192;50.328;7.610;2022-08-03T03:20:20;3.60;;;3.30;;
10293;SDS011;5192;50.328;7.610;2022-08-03T03:22:48;3.47;;;3.17;;
10293;SDS011;5192;50.328;7.610;2022-08-03T03:25:20;3.93;;;3.63;;
10293;SDS011;5192;50.328;7.610;2022-08-03T03:27:46;4.30;;;3.90;;
10293;SDS011;5192;50.328;7.610;2022-08-03T03:30:13;4.90;;;3.80;;
10293;SDS011;5192;50.328;7.610;2022-08-03T03:32:39;3.70;;;3.40;;
10293;SDS011;5192;50.328;7.610;2022-08-03T03:35:05;4.10;;;3.80;;
10293;SDS011;5192;50.328;7.610;2022-08-03T03:37:34;4.77;;;3.67;;
10293;SDS011;5192;50.328;7.610;2022-08-03T03:40:03;3.70;;;3.40;;
10293;SDS011;5192;50.328;7.610;2022-08-03T03:42:29;3.53;;;3.23;;
10293;SDS011;5192;50.328;7.610;2022-08-03T03:44:56;3.97;;;3.67;;
10293;SDS011;5192;50.328;7.610;2022-08-03T03:47:23;4.57;;;4.17;;
10293;SDS011;5192;50.328;7.610;2022-08-03T03:49:49;3.93;;;3.63;;
10293;SDS011;5192;50.328;7.610;2022-08-03T03:52:17;3.27;;;3.07;;
10293;SDS011;5192;50.328;7.610;2022-08-03T03:54:43;3.40;;;3.20;;
10293;SDS011;5192;50.328;7.610;2022-08-03T03:57:13;4.13;;;3.83;;
10293;SDS011;5192;50.328;7.610;2022-08-03T03:59:40;4.13;;;3.77;;
10293;SDS011;5192;50.328;7.610;2022-08-03T04:02:07;3.77;;;3.50;;
10293;SDS011;5192;50.328;7.610;2022-08-03T04:04:35;4.43;;;3.50;;
10293;SDS011;5192;50.328;7.610;2022-08-03T04:07:21;5.23;;;4.50;;
10293;SDS011;5192;50.328;7.610;2022-08-03T04:10:22;4.67;;;4.27;;
10293;SDS011;5192;50.328;7.610;2022-08-03T04:13:11;4.23;;;3.83;;
10293;SDS011;5192;50.328;7.610;2022-08-03T04:15:44;4.60;;;4.20;;
10293;SDS011;5192;50.328;7.610;2022-08-03T04:18:12;4.13;;;3.83;;
10293;SDS011;5192;50.328;7.610;2022-08-03T04:20:39;4.43;;;4.03;;
10293;SDS011;5192;50.328;7.610;2022-08-03T04:23:12;4.40;;;4.10;;
10293;SDS011;5192;50.328;7.610;2022-08-03T04:25:41;14.17;;;12.67;;
10293;SDS011;5192;50.328;7.610;2022-08-03T04:28:09;9.13;;;8.23;;
10293;SDS011;5192;50.328;7.610;2022-08-03T04:30:36;4.20;;;3.80;;
10293;SDS011;5192;50.328;7.610;2022-08-03T04:33:04;4.00;;;3.70;;
10293;SDS011;5192;50.328;7.610;2022-08-03T04:35:32;4.10;;;3.80;;
10293;SDS011;5192;50.328;7.610;2022-08-03T04:38:01;4.20;;;3.80;;
10293;SDS011;5192;50.328;7.610;2022-08-03T04:40:32;3.67;;;3.30;;
10293;SDS011;5192;50.328;7.610;2022-08-03T04:43:05;6.73;;;6.13;;
10293;SDS011;5192;50.328;7.610;2022-08-03T04:45:34;5.50;;;5.00;;
10293;SDS011;5192;50.328;7.610;2022-08-03T04:48:04;4.70;;;4.17;;
10293;SDS011;5192;50.328;7.610;2022-08-03T04:50:34;4.10;;;3.70;;
10293;SDS011;5192;50.328;7.610;2022-08-03T04:53:05;4.63;;;3.57;;
10293;SDS011;5192;50.328;7.610;2022-08-03T04:55:35;4.83;;;3.87;;
10293;SDS011;5192;50.328;7.610;2022-08-03T04:58:05;3.50;;;3.30;;
10293;SDS011;5192;50.328;7.610;2022-08-03T05:00:34;5.00;;;4.60;;
10293;SDS011;5192;50.328;7.610;2022-08-03T05:03:03;4.73;;;4.33;;
10293;SDS011;5192;50.328;7.610;2022-08-03T05:05:30;4.77;;;4.37;;
10293;SDS011;5192;50.328;7.610;2022-08-03T05:08:00;4.60;;;4.23;;
10293;SDS011;5192;50.328;7.610;2022-08-03T05:10:26;5.67;;;4.60;;
10293;SDS011;5192;50.328;7.610;2022-08-03T05:12:52;3.80;;;3.50;;
10293;SDS011;5192;50.328;7.610;2022-08-03T05:15:19;4.33;;;3.93;;
10293;SDS011;5192;50.328;7.610;2022-08-03T05:17:45;4.97;;;3.40;;
10293;SDS011;5192;50.328;7.610;2022-08-03T05:20:11;4.17;;;3.77;;
10293;SDS011;5192;50.328;7.610;2022-08-03T05:22:36;4.43;;;3.90;;
10293;SDS011;5192;50.328;7.610;2022-08-03T05:25:03;3.90;;;3.60;;
10293;SDS011;5192;50.328;7.610;2022-08-03T05:27:29;3.77;;;3.47;;
10293;SDS011;5192;50.328;7.610;2022-08-03T05:29:56;3.40;;;3.20;;
10293;SDS011;5192;50.328;7.610;2022-08-03T05:32:24;3.60;;;2.87;;
10293;SDS011;5192;50.328;7.610;2022-08-03T05:34:51;3.70;;;3.40;;
10293;SDS011;5192;50.328;7.610;2022-08-03T05:37:17;3.60;;;3.30;;
10293;SDS011;5192;50.328;7.610;2022-08-03T05:39:43;3.53;;;3.27;;
10293;SDS011;5192;50.328;7.610;2022-08-03T05:42:14;3.57;;;3.27;;
10293;SDS011;5192;50.328;7.610;2022-08-03T05:44:41;3.80;;;3.50;;
10293;SDS011;5192;50.328;7.610;2022-08-03T05:47:07;4.07;;;3.40;;
10293;SDS011;5192;50.328;7.610;2022-08-03T05:49:33;3.40;;;3.20;;
10293;SDS011;5192;50.328;7.610;2022-08-03T05:52:00;3.93;;;3.63;;
10293;SDS011;5192;50.328;7.610;2022-08-03T05:54:26;3.87;;;3.57;;
10293;SDS011;5192;50.328;7.610;2022-08-03T05:56:56;3.83;;;3.53;;
10293;SDS011;5192;50.328;7.610;2022-08-03T05:59:23;3.53;;;3.23;;
10293;SDS011;5192;50.328;7.610;2022-08-03T06:01:51;6.03;;;3.40;;
10293;SDS011;5192;50.328;7.610;2022-08-03T06:04:17;3.80;;;3.37;;
10293;SDS011;5192;50.328;7.610;2022-08-03T06:06:44;3.93;;;3.63;;
10293;SDS011;5192;50.328;7.610;2022-08-03T06:09:12;3.73;;;3.43;;
10293;SDS011;5192;50.328;7.610;2022-08-03T06:11:40;3.70;;;3.40;;
10293;SDS011;5192;50.328;7.610;2022-08-03T06:14:07;3.37;;;2.90;;
10293;SDS011;5192;50.328;7.610;2022-08-03T06:16:32;3.60;;;3.30;;
10293;SDS011;5192;50.328;7.610;2022-08-03T06:19:01;3.37;;;3.07;;
10293;SDS011;5192;50.328;7.610;2022-08-03T06:21:28;3.57;;;2.93;;
10293;SDS011;5192;50.328;7.610;2022-08-03T06:23:56;3.13;;;2.83;;
10293;SDS011;5192;50.328;7.610;2022-08-03T06:26:25;4.60;;;3.03;;
10293;SDS011;5192;50.328;7.610;2022-08-03T06:28:54;5.30;;;3.03;;
10293;SDS011;5192;50.328;7.610;2022-08-03T06:31:24;4.50;;;2.90;;
10293;SDS011;5192;50.328;7.610;2022-08-03T06:33:54;3.00;;;2.80;;
10293;SDS011;5192;50.328;7.610;2022-08-03T06:36:20;3.03;;;2.83;;
10293;SDS011;5192;50.328;7.610;2022-08-03T06:38:47;3.10;;;2.90;;
10293;SDS011;5192;50.328;7.610;2022-08-03T06:41:14;4.50;;;2.90;;
10293;SDS011;5192;50.328;7.610;2022-08-03T06:43:41;3.70;;;2.83;;
10293;SDS011;5192;50.328;7.610;2022-08-03T06:46:07;3.25;;;3.00;;
10293;SDS011;5192;50.328;7.610;2022-08-03T06:48:34;2.93;;;2.73;;
10293;SDS011;5192;50.328;7.610;2022-08-03T06:50:59;3.42;;;3.20;;
10293;SDS011;5192;50.328;7.610;2022-08-03T06:53:25;2.90;;;2.70;;
10293;SDS011;5192;50.328;7.610;2022-08-03T06:55:52;3.17;;;2.97;;
10293;SDS011;5192;50.328;7.610;2022-08-03T06:58:17;3.40;;;3.10;;
10293;SDS011;5192;50.328;7.610;2022-08-03T07:00:45;3.10;;;2.75;;
10293;SDS011;5192;50.328;7.610;2022-08-03T07:03:11;3.38;;;3.03;;
10293;SDS011;5192;50.328;7.610;2022-08-03T07:05:39;3.33;;;3.03;;
10293;SDS011;5192;50.328;7.610;2022-08-03T07:08:08;3.50;;;3.13;;
10293;SDS011;5192;50.328;7.610;2022-08-03T07:10:34;4.60;;;4.20;;
10293;SDS011;5192;50.328;7.610;2022-08-03T07:13:03;3.40;;;3.10;;
10293;SDS011;5192;50.328;7.610;2022-08-03T07:15:30;3.45;;;3.15;;
10293;SDS011;5192;50.328;7.610;2022-08-03T07:18:00;3.45;;;3.15;;
10293;SDS011;5192;50.328;7.610;2022-08-03T07:20:26;3.95;;;3.20;;
10293;SDS011;5192;50.328;7.610;2022-08-03T07:22:53;3.30;;;3.00;;
10293;SDS011;5192;50.328;7.610;2022-08-03T07:25:19;3.97;;;2.95;;
10293;SDS011;5192;50.328;7.610;2022-08-03T07:27:46;3.20;;;2.90;;
10293;SDS011;5192;50.328;7.610;2022-08-03T07:30:13;4.20;;;2.90;;
10293;SDS011;5192;50.328;7.610;2022-08-03T07:32:40;3.13;;;2.92;;
10293;SDS011;5192;50.328;7.610;2022-08-03T07:35:09;3.20;;;2.90;;
10293;SDS011;5192;50.328;7.610;2022-08-03T07:37:35;3.35;;;3.05;;
10293;SDS011;5192;50.328;7.610;2022-08-03T07:40:03;5.35;;;4.90;;
10293;SDS011;5192;50.328;7.610;2022-08-03T07:42:31;3.88;;;3.50;;
10293;SDS011;5192;50.328;7.610;2022-08-03T07:45:06;3.25;;;2.95;;
10293;SDS011;5192;50.328;7.610;2022-08-03T07:47:33;3.92;;;2.80;;
10293;SDS011;5192;50.328;7.610;2022-08-03T07:50:01;3.22;;;2.95;;
10293;SDS011;5192;50.328;7.610;2022-08-03T07:52:31;4.13;;;3.30;;
10293;SDS011;5192;50.328;7.610;2022-08-03T07:55:15;3.42;;;3.13;;
10293;SDS011;5192;50.328;7.610;2022-08-03T07:57:46;4.45;;;2.90;;
10293;SDS011;5192;50.328;7.610;2022-08-03T08:00:24;4.60;;;3.03;;
10293;SDS011;5192;50.328;7.610;2022-08-03T08:02:50;3.70;;;2.95;;
10293;SDS011;5192;50.328;7.610;2022-08-03T08:05:18;3.03;;;2.70;;
10293;SDS011;5192;50.328;7.610;2022-08-03T08:07:43;3.15;;;2.90;;
10293;SDS011;5192;50.328;7.610;2022-08-03T08:10:12;3.58;;;3.20;;
10293;SDS011;5192;50.328;7.610;2022-08-03T08:12:38;3.30;;;3.05;;
10293;SDS011;5192;50.328;7.610;2022-08-03T08:15:06;3.05;;;2.75;;
10293;SDS011;5192;50.328;7.610;2022-08-03T08:17:42;5.30;;;3.08;;
10293;SDS011;5192;50.328;7.610;2022-08-03T08:20:24;3.00;;;2.80;;
10293;SDS011;5192;50.328;7.610;2022-08-03T08:22:52;3.65;;;2.80;;
10293;SDS011;5192;50.328;7.610;2022-08-03T08:25:21;3.35;;;3.13;;
10293;SDS011;5192;50.328;7.610;2022-08-03T08:27:48;3.28;;;2.97;;
10293;SDS011;5192;50.328;7.610;2022-08-03T08:30:16;4.90;;;3.13;;
10293;SDS011;5192;50.328;7.610;2022-08-03T08:32:45;3.78;;;2.60;;
10293;SDS011;5192;50.328;7.610;2022-08-03T08:35:12;4.35;;;2.90;;
10293;SDS011;5192;50.328;7.610;2022-08-03T08:37:39;3.00;;;2.80;;
10293;SDS011;5192;50.328;7.610;2022-08-03T08:40:06;4.20;;;3.90;;
10293;SDS011;5192;50.328;7.610;2022-08-03T08:42:53;4.57;;;3.70;;
10293;SDS011;5192;50.328;7.610;2022-08-03T08:45:23;3.55;;;2.65;;
10293;SDS011;5192;50.328;7.610;2022-08-03T08:47:55;4.57;;;2.92;;
10293;SDS011;5192;50.328;7.610;2022-08-03T08:50:53;3.10;;;2.90;;
10293;SDS011;5192;50.328;7.610;2022-08-03T08:53:21;3.03;;;2.70;;
10293;SDS011;5192;50.328;7.610;2022-08-03T08:55:51;3.65;;;3.00;;
10293;SDS011;5192;50.328;7.610;2022-08-03T08:58:27;3.30;;;3.00;;
10293;SDS011;5192;50.328;7.610;2022-08-03T09:00:58;2.90;;;2.70;;
10293;SDS011;5192;50.328;7.610;2022-08-03T09:03:24;3.28;;;2.97;;
10293;SDS011;5192;50.328;7.610;2022-08-03T09:05:51;3.40;;;3.10;;
10293;SDS011;5192;50.328;7.610;2022-08-03T09:08:17;4.53;;;2.80;;
10293;SDS011;5192;50.328;7.610;2022-08-03T09:10:44;3.88;;;2.83;;
10293;SDS011;5192;50.328;7.610;2022-08-03T09:13:09;3.80;;;3.10;;
10293;SDS011;5192;50.328;7.610;2022-08-03T09:15:36;3.50;;;3.03;;
10293;SDS011;5192;50.328;7.610;2022-08-03T09:18:04;2.88;;;2.67;;
10293;SDS011;5192;50.328;7.610;2022-08-03T09:20:34;3.83;;;3.00;;
10293;SDS011;5192;50.328;7.610;2022-08-03T09:25:38;5.20;;;2.78;;
10293;SDS011;5192;50.328;7.610;2022-08-03T09:30:34;3.00;;;2.70;;
10293;SDS011;5192;50.328;7.610;2022-08-03T09:33:04;3.25;;;2.95;;
10293;SDS011;5192;50.328;7.610;2022-08-03T09:35:32;3.10;;;2.80;;
10293;SDS011;5192;50.328;7.610;2022-08-03T09:38:22;3.20;;;3.00;;
10293;SDS011;5192;50.328;7.610;2022-08-03T09:40:51;2.92;;;2.70;;
10293;SDS011;5192;50.328;7.610;2022-08-03T09:43:19;3.63;;;2.78;;
10293;SDS011;5192;50.328;7.610;2022-08-03T09:45:45;3.38;;;2.88;;
10293;SDS011;5192;50.328;7.610;2022-08-03T09:51:02;2.65;;;2.45;;
10293;SDS011;5192;50.328;7.610;2022-08-03T09:53:29;3.67;;;2.50;;
10293;SDS011;5192;50.328;7.610;2022-08-03T09:55:57;2.92;;;2.72;;
10293;SDS011;5192;50.328;7.610;2022-08-03T09:58:27;3.05;;;2.83;;
10293;SDS011;5192;50.328;7.610;2022-08-03T10:01:00;2.78;;;2.58;;
10293;SDS011;5192;50.328;7.610;2022-08-03T10:03:49;3.13;;;2.67;;
10293;SDS011;5192;50.328;7.610;2022-08-03T10:06:25;3.22;;;2.80;;
10293;SDS011;5192;50.328;7.610;2022-08-03T10:09:08;2.92;;;2.72;;
10293;SDS011;5192;50.328;7.610;2022-08-03T10:11:43;3.00;;;2.70;;
10293;SDS011;5192;50.328;7.610;2022-08-03T10:14:13;3.72;;;2.65;;
10293;SDS011;5192;50.328;7.610;2022-08-03T10:16:46;3.70;;;2.60;;
10293;SDS011;5192;50.328;7.610;2022-08-03T10:19:21;3.00;;;2.70;;
10293;SDS011;5192;50.328;7.610;2022-08-03T10:21:52;2.55;;;2.35;;
10293;SDS011;5192;50.328;7.610;2022-08-03T10:24:24;3.30;;;3.00;;
10293;SDS011;5192;50.328;7.610;2022-08-03T10:27:00;2.58;;;2.38;;
10293;SDS011;5192;50.328;7.610;2022-08-03T10:29:44;2.60;;;2.40;;
10293;SDS011;5192;50.328;7.610;2022-08-03T10:32:37;2.30;;;2.20;;
10293;SDS011;5192;50.328;7.610;2022-08-03T10:35:33;3.53;;;2.60;;
10293;SDS011;5192;50.328;7.610;2022-08-03T10:38:28;2.50;;;2.30;;
10293;SDS011;5192;50.328;7.610;2022-08-03T10:41:25;2.60;;;2.40;;
10293;SDS011;5192;50.328;7.610;2022-08-03T10:43:57;3.30;;;2.45;;
10293;SDS011;5192;50.328;7.610;2022-08-03T10:47:14;2.92;;;2.63;;
10293;SDS011;5192;50.328;7.610;2022-08-03T10:49:43;2.75;;;2.35;;
10293;SDS011;5192;50.328;7.610;2022-08-03T10:52:13;2.53;;;2.33;;
10293;SDS011;5192;50.328;7.610;2022-08-03T10:54:44;3.20;;;2.38;;
10293;SDS011;5192;50.328;7.610;2022-08-03T10:58:12;2.13;;;2.00;;
10293;SDS011;5192;50.328;7.610;2022-08-03T11:00:25;2.40;;;2.30;;
10293;SDS011;5192;50.328;7.610;2022-08-03T11:03:17;2.50;;;2.30;;
10293;SDS011;5192;50.328;7.610;2022-08-03T11:11:53;3.42;;;2.40;;
10293;SDS011;5192;50.328;7.610;2022-08-03T11:14:22;2.50;;;2.20;;
10293;SDS011;5192;50.328;7.610;2022-08-03T11:17:09;4.20;;;2.70;;
10293;SDS011;5192;50.328;7.610;2022-08-03T11:19:45;2.95;;;2.40;;
10293;SDS011;5192;50.328;7.610;2022-08-03T11:22:13;2.65;;;2.45;;
10293;SDS011;5192;50.328;7.610;2022-08-03T11:27:33;2.55;;;2.25;;
10293;SDS011;5192;50.328;7.610;2022-08-03T11:33:03;2.28;;;2.17;;
10293;SDS011;5192;50.328;7.610;2022-08-03T11:35:33;2.25;;;2.15;;
10293;SDS011;5192;50.328;7.610;2022-08-03T11:38:21;2.78;;;2.30;;
10293;SDS011;5192;50.328;7.610;2022-08-03T11:40:52;2.53;;;2.33;;
10293;SDS011;5192;50.328;7.610;2022-08-03T11:46:14;2.88;;;2.55;;
10293;SDS011;5192;50.328;7.610;2022-08-03T11:48:52;2.40;;;2.20;;
10293;SDS011;5192;50.328;7.610;2022-08-03T11:51:27;2.42;;;2.22;;
10293;SDS011;5192;50.328;7.610;2022-08-03T11:54:05;2.65;;;2.42;;
10293;SDS011;5192;50.328;7.610;2022-08-03T11:59:31;2.58;;;2.38;;
10293;SDS011;5192;50.328;7.610;2022-08-03T12:02:06;2.28;;;2.08;;
10293;SDS011;5192;50.328;7.610;2022-08-03T12:04:50;2.05;;;1.95;;
10293;SDS011;5192;50.328;7.610;2022-08-03T12:07:32;2.25;;;2.15;;
10293;SDS011;5192;50.328;7.610;2022-08-03T12:10:13;3.35;;;2.35;;
10293;SDS011;5192;50.328;7.610;2022-08-03T12:12:40;2.20;;;2.10;;
10293;SDS011;5192;50.328;7.610;2022-08-03T12:15:14;2.35;;;2.20;;
10293;SDS011;5192;50.328;7.610;2022-08-03T12:17:52;2.30;;;2.20;;
10293;SDS011;5192;50.328;7.610;2022-08-03T12:20:25;3.35;;;2.20;;
10293;SDS011;5192;50.328;7.610;2022-08-03T12:23:06;2.35;;;2.25;;
10293;SDS011;5192;50.328;7.610;2022-08-03T12:25:32;2.63;;;2.20;;
10293;SDS011;5192;50.328;7.610;2022-08-03T12:30:46;2.28;;;2.10;;
10293;SDS011;5192;50.328;7.610;2022-08-03T12:36:34;4.25;;;2.10;;
10293;SDS011;5192;50.328;7.610;2022-08-03T12:39:06;2.22;;;2.10;;
10293;SDS011;5192;50.328;7.610;2022-08-03T12:41:37;1.98;;;1.88;;
10293;SDS011;5192;50.328;7.610;2022-08-03T12:44:06;2.20;;;2.10;;
10293;SDS011;5192;50.328;7.610;2022-08-03T12:49:24;3.03;;;2.03;;
10293;SDS011;5192;50.328;7.610;2022-08-03T12:52:20;1.90;;;1.80;;
10293;SDS011;5192;50.328;7.610;2022-08-03T12:55:03;3.42;;;1.92;;
10293;SDS011;5192;50.328;7.610;2022-08-03T12:57:46;3.80;;;2.20;;
10293;SDS011;5192;50.328;7.610;2022-08-03T13:00:16;2.03;;;1.92;;
10293;SDS011;5192;50.328;7.610;2022-08-03T13:02:43;1.95;;;1.85;;
10293;SDS011;5192;50.328;7.610;2022-08-03T13:05:15;2.28;;;2.10;;
10293;SDS011;5192;50.328;7.610;2022-08-03T13:07:44;2.20;;;2.10;;
10293;SDS011;5192;50.328;7.610;2022-08-03T13:10:26;2.45;;;2.25;;
10293;SDS011;5192;50.328;7.610;2022-08-03T13:13:04;2.10;;;1.90;;
10293;SDS011;5192;50.328;7.610;2022-08-03T13:15:33;2.25;;;2.05;;
10293;SDS011;5192;50.328;7.610;2022-08-03T13:18:06;2.55;;;2.03;;
10293;SDS011;5192;50.328;7.610;2022-08-03T13:20:35;2.10;;;2.00;;
10293;SDS011;5192;50.328;7.610;2022-08-03T13:23:06;1.95;;;1.85;;
10293;SDS011;5192;50.328;7.610;2022-08-03T13:25:34;2.03;;;1.92;;
10293;SDS011;5192;50.328;7.610;2022-08-03T13:28:00;2.53;;;1.77;;
10293;SDS011;5192;50.328;7.610;2022-08-03T13:30:33;2.28;;;1.95;;
10293;SDS011;5192;50.328;7.610;2022-08-03T13:33:03;2.03;;;1.92;;
10293;SDS011;5192;50.328;7.610;2022-08-03T13:35:34;1.88;;;1.77;;
10293;SDS011;5192;50.328;7.610;2022-08-03T13:38:05;2.58;;;2.00;;
10293;SDS011;5192;50.328;7.610;2022-08-03T13:40:33;1.95;;;1.85;;
10293;SDS011;5192;50.328;7.610;2022-08-03T13:43:06;2.20;;;2.00;;
10293;SDS011;5192;50.328;7.610;2022-08-03T13:45:37;2.10;;;2.00;;
10293;SDS011;5192;50.328;7.610;2022-08-03T13:48:22;1.83;;;1.73;;
10293;SDS011;5192;50.328;7.610;2022-08-03T13:50:54;2.38;;;1.70;;
10293;SDS011;5192;50.328;7.610;2022-08-03T13:53:19;4.20;;;3.00;;
10293;SDS011;5192;50.328;7.610;2022-08-03T13:55:48;1.90;;;1.77;;
10293;SDS011;5192;50.328;7.610;2022-08-03T13:58:16;1.70;;;1.60;;
10293;SDS011;5192;50.328;7.610;2022-08-03T14:01:05;2.05;;;1.95;;
10293;SDS011;5192;50.328;7.610;2022-08-03T14:03:30;1.83;;;1.73;;
10293;SDS011;5192;50.328;7.610;2022-08-03T14:05:58;1.70;;;1.60;;
10293;SDS011;5192;50.328;7.610;2022-08-03T14:08:23;2.22;;;1.83;;
10293;SDS011;5192;50.328;7.610;2022-08-03T14:10:49;2.65;;;1.63;;
10293;SDS011;5192;50.328;7.610;2022-08-03T14:13:17;2.50;;;1.70;;
10293;SDS011;5192;50.328;7.610;2022-08-03T14:15:43;2.15;;;1.70;;
10293;SDS011;5192;50.328;7.610;2022-08-03T14:18:11;1.80;;;1.60;;
10293;SDS011;5192;50.328;7.610;2022-08-03T14:20:37;2.08;;;1.63;;
10293;SDS011;5192;50.328;7.610;2022-08-03T14:23:04;1.63;;;1.30;;
10293;SDS011;5192;50.328;7.610;2022-08-03T14:25:31;2.30;;;1.50;;
10293;SDS011;5192;50.328;7.610;2022-08-03T14:27:56;1.70;;;1.60;;
10293;SDS011;5192;50.328;7.610;2022-08-03T14:30:23;1.83;;;1.67;;
10293;SDS011;5192;50.328;7.610;2022-08-03T14:32:50;1.58;;;1.48;;
10293;SDS011;5192;50.328;7.610;2022-08-03T14:35:22;1.70;;;1.60;;
10293;SDS011;5192;50.328;7.610;2022-08-03T14:37:50;2.05;;;1.83;;
10293;SDS011;5192;50.328;7.610;2022-08-03T14:40:18;2.17;;;1.60;;
10293;SDS011;5192;50.328;7.610;2022-08-03T14:42:44;1.85;;;1.75;;
10293;SDS011;5192;50.328;7.610;2022-08-03T14:45:10;1.77;;;1.67;;
10293;SDS011;5192;50.328;7.610;2022-08-03T14:47:39;2.17;;;2.00;;
10293;SDS011;5192;50.328;7.610;2022-08-03T14:50:05;2.22;;;1.65;;
10293;SDS011;5192;50.328;7.610;2022-08-03T14:52:32;1.83;;;1.73;;
10293;SDS011;5192;50.328;7.610;2022-08-03T14:55:03;1.95;;;1.85;;
10293;SDS011;5192;50.328;7.610;2022-08-03T14:57:35;1.90;;;1.70;;
10293;SDS011;5192;50.328;7.610;2022-08-03T15:00:01;1.80;;;1.70;;
10293;SDS011;5192;50.328;7.610;2022-08-03T15:02:28;2.53;;;1.73;;
10293;SDS011;5192;50.328;7.610;2022-08-03T15:04:54;3.03;;;1.80;;
10293;SDS011;5192;50.328;7.610;2022-08-03T15:07:21;1.77;;;1.65;;
10293;SDS011;5192;50.328;7.610;2022-08-03T15:09:48;1.60;;;1.50;;
10293;SDS011;5192;50.328;7.610;2022-08-03T15:12:15;2.42;;;1.90;;
10293;SDS011;5192;50.328;7.610;2022-08-03T15:14:41;1.92;;;1.83;;
10293;SDS011;5192;50.328;7.610;2022-08-03T15:17:08;1.77;;;1.67;;
10293;SDS011;5192;50.328;7.610;2022-08-03T15:19:34;1.92;;;1.83;;
10293;SDS011;5192;50.328;7.610;2022-08-03T15:22:02;1.80;;;1.70;;
10293;SDS011;5192;50.328;7.610;2022-08-03T15:24:28;1.90;;;1.80;;
10293;SDS011;5192;50.328;7.610;2022-08-03T15:26:54;1.75;;;1.65;;
10293;SDS011;5192;50.328;7.610;2022-08-03T15:29:22;2.00;;;1.90;;
10293;SDS011;5192;50.328;7.610;2022-08-03T15:31:48;1.98;;;1.77;;
10293;SDS011;5192;50.328;7.610;2022-08-03T15:34:14;1.90;;;1.80;;
10293;SDS011;5192;50.328;7.610;2022-08-03T15:36:42;1.65;;;1.55;;
10293;SDS011;5192;50.328;7.610;2022-08-03T15:39:09;1.98;;;1.73;;
10293;SDS011;5192;50.328;7.610;2022-08-03T15:41:36;1.80;;;1.70;;
10293;SDS011;5192;50.328;7.610;2022-08-03T15:44:02;2.55;;;1.67;;
10293;SDS011;5192;50.328;7.610;2022-08-03T15:46:28;2.03;;;1.92;;
10293;SDS011;5192;50.328;7.610;2022-08-03T15:48:55;2.10;;;1.70;;
10293;SDS011;5192;50.328;7.610;2022-08-03T15:51:22;2.63;;;1.70;;
10293;SDS011;5192;50.328;7.610;2022-08-03T15:53:50;2.03;;;1.92;;
10293;SDS011;5192;50.328;7.610;2022-08-03T15:56:17;2.25;;;2.00;;
10293;SDS011;5192;50.328;7.610;2022-08-03T15:58:44;2.50;;;1.90;;
10293;SDS011;5192;50.328;7.610;2022-08-03T16:01:11;2.10;;;1.90;;
10293;SDS011;5192;50.328;7.610;2022-08-03T16:03:37;1.98;;;1.88;;
10293;SDS011;5192;50.328;7.610;2022-08-03T16:06:05;1.83;;;1.73;;